Pingliang, China
Current Conditions -  °F | °C
As of 10:00 AM on Tuesday 21 Oct 2014 (Local Time) from ZLXY Reporting Station
Moderate Fog Moderate Fog  
Wind Chill: 54°   Ceiling: 600
Heat Index: 54°   Visibility: 0.31mi
Dew Point: 54°   Wind: 4mph
Humidity: 100%   Direction: 260°W
Pressure: 30.27"   Gusts: NA
Location:  35.53°N, 106.68°E
Report Text: ZLXY 210200Z 26002MPS 230V300 0500 R23R/0650N R23L/0750NFGVV006 12/12 Q1025 BECMG TL0250 0700
Loading
Personal Weather Stations






























Interactive Weather Map
Tropical Storm Tracking
New forecast layout! Learn more

10-Day Weather Forecast

Advertisements
Track Severe Weather on mobile